Aeroporto :
LOGIN :

Iscrizione | Disclaimer

   EN    FR    IT 

 










Sommario :    VFR   VFR Marginale   IFR   IFR Intensivo   IFR Molto Intensivo
Visibilità : 
Base nubi : 
>= 8 km
>= 3000ft
5 / 8 km
1000 / 3000 ft
1500m / 5 km
500 / 1000 ft
800 / 1500m
200 / 500 ft
< 800m
< 200 ft
Simboli :   Temporali  Nebbia  Neve Forte  Precipitazioni Forti  Vento > 20 kt
SIGMETs :   Varie  Temporali  Ghiacco  Turbolenza  Onda orograficha  Ceneri Vulcaniche






- Altitudine del aeroporto : 1106 ft


LFSO - Nancy / Ochey

ULTIMO METAR :
  • 070300Z AUTO 28001KT 0800 R20/0800U FZFG VV/// M00/M01 Q1018

METARs OBSOLETI :
  • 070230Z AUTO 30002KT 0250 R20/0600U FZFG VV/// M00/M01 Q1019
  • 070200Z AUTO 36003KT 0300 0250 R20/0250N FZFG VV/// M00/M01 Q1019
  • 070130Z AUTO 16003KT 5000 BR FEW003 SCT049 01/01 Q1018
  • 070100Z AUTO 35003KT 5000 BR OVC003 01/00 Q1019
  • 070030Z AUTO 31004KT 6000 BKN004 OVC040 01/01 Q1019

TAF TAF LFSO
Valido dal 06 a 21 ore il 07 a 21 ore UTC


062000Z 0621/0721 32003KT 4500 BR OVC003
TEMPO 0622/0624 0800 FZFG
PROB30
TEMPO 0700/0710 0300 FZFG VV///
BECMG 0712/0713 8000 NSW OVC008
BECMG 0719/0721 0600 FZFG



MetMap, La meteo Aeronautica in un colpo d'occhio ! - Copyright ORBIFLY Dicembre 2007 - Disclaimer

ORBIFLY MET'MAP TEAM :

Programmazione e sviluppo : Alexandra Zaïnal
Concezione : Baudouin d'Aumeries
Supporto tecnico e logistico : Manuel Goepfert
Aiuto : Marc-Olivier Méhu
Aiuto per la traduzione : Arnaldo La Scala




FONTI E CREDITI :

   NOAA